createdAt,value
2023-03-11T00:00:46.318Z,96478.78
2023-03-11T00:03:16.640Z,96481.81
2023-03-11T00:05:46.718Z,96484.16
2023-03-11T00:08:17.453Z,96484.75
2023-03-11T00:10:47.482Z,96491.50
2023-03-11T00:13:16.323Z,96489.66
2023-03-11T00:15:45.773Z,96492.31
2023-03-11T00:18:13.322Z,96488.53
2023-03-11T00:20:46.077Z,96479.03
2023-03-11T00:23:15.845Z,96468.09
2023-03-11T00:25:44.940Z,96452.09
2023-03-11T00:28:14.776Z,96466.81
2023-03-11T00:30:44.934Z,96456.00
2023-03-11T00:33:14.520Z,96463.97
2023-03-11T00:35:43.182Z,96464.59
2023-03-11T00:38:15.344Z,96471.47
2023-03-11T00:40:44.341Z,96467.22
2023-03-11T00:43:12.208Z,96473.19
2023-03-11T00:45:40.529Z,96494.59
2023-03-11T00:48:09.222Z,96490.88
2023-03-11T00:50:37.625Z,96481.31
2023-03-11T00:53:06.181Z,96483.19
2023-03-11T00:55:35.701Z,96481.56
2023-03-11T00:58:05.678Z,96482.31
2023-03-11T01:00:34.177Z,96472.63
2023-03-11T01:03:02.169Z,96471.94
2023-03-11T01:05:32.736Z,96469.16
2023-03-11T01:08:00.625Z,96458.53
2023-03-11T01:10:28.963Z,96462.97
2023-03-11T01:12:58.083Z,96469.22
2023-03-11T01:15:29.000Z,96458.47
2023-03-11T01:17:56.541Z,96464.38
2023-03-11T01:20:24.715Z,96467.84
2023-03-11T01:22:52.402Z,96469.56
2023-03-11T01:25:21.883Z,96466.91
2023-03-11T01:27:49.415Z,96468.41
2023-03-11T01:30:20.897Z,96473.72
2023-03-11T01:32:49.213Z,96454.72
2023-03-11T01:35:18.718Z,96436.00
2023-03-11T01:37:46.969Z,96448.16
2023-03-11T01:40:19.930Z,96435.38
2023-03-11T01:42:47.472Z,96424.28
2023-03-11T01:45:41.733Z,96414.06
2023-03-11T01:48:11.085Z,96410.78
2023-03-11T01:50:42.727Z,96395.22
2023-03-11T01:53:13.244Z,96394.91
2023-03-11T01:55:41.304Z,96385.78
2023-03-11T01:58:14.210Z,96372.91
2023-03-11T02:00:44.345Z,96371.09
2023-03-11T02:03:18.846Z,96373.16
2023-03-11T02:05:48.779Z,96373.88
2023-03-11T02:08:16.330Z,96376.94
2023-03-11T02:10:44.540Z,96389.97
2023-03-11T02:13:12.493Z,96389.47
2023-03-11T02:15:40.335Z,96380.28
2023-03-11T02:18:12.161Z,96390.09
2023-03-11T02:20:49.354Z,96386.84
2023-03-11T02:23:21.221Z,96391.75
2023-03-11T02:26:00.362Z,96371.50
2023-03-11T02:28:34.256Z,96357.66
2023-03-11T02:31:02.558Z,96344.75
2023-03-11T02:33:34.534Z,96341.09
2023-03-11T02:36:02.212Z,96353.28
2023-03-11T02:38:29.839Z,96355.25
2023-03-11T02:40:59.152Z,96342.25
2023-03-11T02:43:35.008Z,96359.22
2023-03-11T02:46:06.389Z,96358.44
2023-03-11T02:48:36.464Z,96386.56
2023-03-11T02:51:05.013Z,96386.84
2023-03-11T02:53:39.358Z,96373.59
2023-03-11T02:56:07.104Z,96352.59
2023-03-11T02:58:36.288Z,96339.91
2023-03-11T03:01:04.380Z,96326.44
2023-03-11T03:03:32.333Z,96314.34
2023-03-11T03:05:59.972Z,96308.63
2023-03-11T03:08:27.632Z,96311.72
2023-03-11T03:10:55.251Z,96300.88
2023-03-11T03:13:22.852Z,96294.22
2023-03-11T03:15:51.934Z,96285.03
2023-03-11T03:18:19.594Z,96301.38
2023-03-11T03:20:47.197Z,96304.13
2023-03-11T03:23:14.855Z,96299.03
2023-03-11T03:25:43.294Z,96294.22
2023-03-11T03:28:11.186Z,96287.59
2023-03-11T03:30:39.307Z,96276.69
2023-03-11T03:33:08.792Z,96259.09
2023-03-11T03:35:40.208Z,96252.13
2023-03-11T03:38:08.155Z,96240.28
2023-03-11T03:40:36.460Z,96235.81
2023-03-11T03:43:04.809Z,96257.91
2023-03-11T03:45:32.554Z,96260.13
2023-03-11T03:48:00.211Z,96239.41
2023-03-11T03:50:29.172Z,96239.56
2023-03-11T03:52:56.853Z,96255.59
2023-03-11T03:55:24.970Z,96258.28
2023-03-11T03:57:52.709Z,96238.50
2023-03-11T04:00:20.802Z,96238.78
2023-03-11T04:02:48.447Z,96235.38
2023-03-11T04:05:16.381Z,96251.78
2023-03-11T04:07:45.266Z,96240.56
2023-03-11T04:10:14.390Z,96224.88
2023-03-11T04:12:42.057Z,96196.97
2023-03-11T04:15:10.389Z,96190.84
2023-03-11T04:17:38.646Z,96239.38
2023-03-11T04:20:06.964Z,96249.56
2023-03-11T04:22:35.063Z,96254.03
2023-03-11T04:25:04.849Z,96262.28
2023-03-11T04:27:32.450Z,96245.41
2023-03-11T04:30:00.059Z,96250.03
2023-03-11T04:32:27.700Z,96257.63
2023-03-11T04:34:55.884Z,96249.56
2023-03-11T04:37:28.141Z,96251.19
2023-03-11T04:39:55.718Z,96223.59
2023-03-11T04:42:24.769Z,96237.06
2023-03-11T04:44:52.376Z,96261.47
2023-03-11T04:47:20.206Z,96256.69
2023-03-11T04:49:47.874Z,96252.03
2023-03-11T04:52:15.495Z,96243.25
2023-03-11T04:54:43.108Z,96232.66
2023-03-11T04:57:10.723Z,96238.59
2023-03-11T04:59:39.701Z,96240.53
2023-03-11T05:02:07.377Z,96235.09
2023-03-11T05:04:35.070Z,96258.06
2023-03-11T05:07:02.742Z,96265.09
2023-03-11T05:09:30.353Z,96252.28
2023-03-11T05:11:57.870Z,96231.53
2023-03-11T05:14:25.435Z,96243.88
2023-03-11T05:16:54.428Z,96252.59
2023-03-11T05:19:22.046Z,96251.69
2023-03-11T05:21:49.651Z,96253.81
2023-03-11T05:24:17.473Z,96250.22
2023-03-11T05:26:48.115Z,96243.22
2023-03-11T05:29:16.155Z,96249.84
2023-03-11T05:31:43.795Z,96244.03
2023-03-11T05:34:12.750Z,96248.75
2023-03-11T05:36:40.529Z,96248.34
2023-03-11T05:39:08.742Z,96255.22
2023-03-11T05:41:36.665Z,96247.13
2023-03-11T05:44:04.307Z,96258.63
2023-03-11T05:46:31.879Z,96252.19
2023-03-11T05:48:59.808Z,96259.88
2023-03-11T05:51:29.003Z,96244.91
2023-03-11T05:53:56.785Z,96254.50
2023-03-11T05:56:24.797Z,96266.41
2023-03-11T05:58:52.410Z,96265.28
2023-03-11T06:01:19.995Z,96267.53
2023-03-11T06:03:47.742Z,96272.34
2023-03-11T06:06:15.382Z,96281.31
2023-03-11T06:08:44.331Z,96278.59
2023-03-11T06:11:11.974Z,96292.97
2023-03-11T06:13:39.791Z,96287.94
2023-03-11T06:16:08.221Z,96292.38
2023-03-11T06:18:35.875Z,96293.47
2023-03-11T06:21:04.255Z,96289.38
2023-03-11T06:23:31.842Z,96299.56
2023-03-11T06:26:03.458Z,96298.59
2023-03-11T06:28:32.109Z,96290.94
2023-03-11T06:31:07.481Z,96287.84
2023-03-11T06:33:35.277Z,96287.47
2023-03-11T06:36:05.422Z,96299.59
2023-03-11T06:38:36.937Z,96291.44
2023-03-11T06:41:07.359Z,96296.38
2023-03-11T06:43:35.873Z,96302.13
2023-03-11T06:46:08.685Z,96300.03
2023-03-11T06:48:36.544Z,96289.00
2023-03-11T06:51:04.696Z,96290.50
2023-03-11T06:53:32.773Z,96301.94
2023-03-11T06:56:02.701Z,96296.63
2023-03-11T06:58:33.927Z,96299.78
2023-03-11T07:01:02.060Z,96307.81
2023-03-11T07:03:30.469Z,96303.94
2023-03-11T07:05:59.331Z,96313.97
2023-03-11T07:08:27.808Z,96317.38
2023-03-11T07:11:03.736Z,96308.44
2023-03-11T07:13:33.564Z,96305.38
2023-03-11T07:16:03.631Z,96309.09
2023-03-11T07:18:32.132Z,96310.91
2023-03-11T07:21:01.771Z,96303.38
2023-03-11T07:23:29.756Z,96309.50
2023-03-11T07:25:57.418Z,96314.63
2023-03-11T07:28:27.453Z,96327.09
2023-03-11T07:30:57.028Z,96329.59
2023-03-11T07:33:24.789Z,96327.44
2023-03-11T07:35:52.786Z,96331.81
2023-03-11T07:38:20.350Z,96326.13
2023-03-11T07:40:47.873Z,96345.69
2023-03-11T07:43:15.371Z,96340.88
2023-03-11T07:45:42.990Z,96333.03
2023-03-11T07:48:11.891Z,96335.31
2023-03-11T07:50:39.610Z,96340.28
2023-03-11T07:53:07.270Z,96343.94
2023-03-11T07:55:34.832Z,96344.03
2023-03-11T07:58:02.730Z,96336.84
2023-03-11T08:00:30.612Z,96336.16
2023-03-11T08:02:58.338Z,96348.34
2023-03-11T08:05:27.296Z,96347.22
2023-03-11T08:07:54.931Z,96344.13
2023-03-11T08:10:22.587Z,96352.47
2023-03-11T08:12:51.059Z,96370.13
2023-03-11T08:15:18.593Z,96374.84
2023-03-11T08:17:46.188Z,96385.56
2023-03-11T08:20:14.012Z,96404.38
2023-03-11T08:22:55.621Z,96412.25
2023-03-11T08:25:25.511Z,96415.91
2023-03-11T08:27:53.191Z,96428.91
2023-03-11T08:30:21.231Z,96428.44
2023-03-11T08:32:49.836Z,96432.44
2023-03-11T08:35:17.627Z,96436.56
2023-03-11T08:37:46.986Z,96441.34
2023-03-11T08:40:14.695Z,96447.06
2023-03-11T08:42:42.315Z,96449.38
2023-03-11T08:45:11.122Z,96447.88
2023-03-11T08:47:39.759Z,96445.72
2023-03-11T08:50:12.342Z,96451.22
2023-03-11T08:52:39.965Z,96453.81
2023-03-11T08:55:13.359Z,96454.78
2023-03-11T08:57:40.882Z,96452.50
2023-03-11T09:00:12.697Z,96454.25
2023-03-11T09:02:40.864Z,96464.06
2023-03-11T09:05:09.273Z,96473.03
2023-03-11T09:07:37.206Z,96474.56
2023-03-11T09:10:05.819Z,96481.66
2023-03-11T09:12:34.831Z,96488.88
2023-03-11T09:15:02.582Z,96493.25
2023-03-11T09:17:30.238Z,96504.03
2023-03-11T09:19:57.774Z,96510.59
2023-03-11T09:22:25.302Z,96519.09
2023-03-11T09:24:52.855Z,96517.84
2023-03-11T09:27:20.414Z,96513.44
2023-03-11T09:29:49.332Z,96513.31
2023-03-11T09:32:16.933Z,96515.03
2023-03-11T09:34:44.557Z,96521.94
2023-03-11T09:37:12.192Z,96517.47
2023-03-11T09:39:39.880Z,96516.94
2023-03-11T09:42:20.355Z,96523.06
2023-03-11T09:44:59.371Z,96511.38
2023-03-11T09:47:53.548Z,96519.69
2023-03-11T09:50:30.198Z,96529.75
2023-03-11T09:53:16.392Z,96525.22
2023-03-11T09:55:46.855Z,96527.97
2023-03-11T09:58:22.706Z,96536.13
2023-03-11T10:00:51.927Z,96529.47
2023-03-11T10:03:34.100Z,96530.00
2023-03-11T10:06:15.167Z,96534.63
2023-03-11T10:08:46.596Z,96540.97
2023-03-11T10:11:29.414Z,96537.88
2023-03-11T10:14:12.647Z,96536.75
2023-03-11T10:16:56.563Z,96526.28
2023-03-11T10:19:38.256Z,96535.16
2023-03-11T10:22:19.231Z,96539.31
2023-03-11T10:25:01.844Z,96540.59
2023-03-11T10:27:37.513Z,96547.94
2023-03-11T10:30:15.742Z,96539.41
2023-03-11T10:32:51.624Z,96538.41
2023-03-11T10:35:22.858Z,96544.63
2023-03-11T10:37:57.508Z,96558.50
2023-03-11T10:40:30.230Z,96553.03
2023-03-11T10:43:04.201Z,96561.41
2023-03-11T10:45:37.961Z,96552.41
2023-03-11T10:48:11.145Z,96562.34
2023-03-11T10:50:50.402Z,96559.94
2023-03-11T10:53:19.892Z,96552.97
2023-03-11T10:55:49.739Z,96553.47
2023-03-11T10:58:20.056Z,96552.34
2023-03-11T11:01:05.149Z,96552.50
2023-03-11T11:03:34.644Z,96551.06
2023-03-11T11:06:05.564Z,96552.72
2023-03-11T11:08:34.072Z,96545.50
2023-03-11T11:11:04.148Z,96553.91
2023-03-11T11:13:33.600Z,96555.41
2023-03-11T11:16:03.390Z,96567.75
2023-03-11T11:18:36.777Z,96570.06
2023-03-11T11:21:07.886Z,96565.31
2023-03-11T11:23:42.972Z,96567.19
2023-03-11T11:26:17.628Z,96569.78
2023-03-11T11:28:45.405Z,96561.41
2023-03-11T11:31:24.805Z,96560.34
2023-03-11T11:33:56.062Z,96555.53
2023-03-11T11:36:29.869Z,96562.75
2023-03-11T11:39:00.867Z,96559.41
2023-03-11T11:41:32.971Z,96550.25
2023-03-11T11:44:04.625Z,96555.59
2023-03-11T11:46:40.358Z,96551.16
2023-03-11T11:49:19.152Z,96556.69
2023-03-11T11:51:54.865Z,96553.41
2023-03-11T11:54:30.999Z,96552.38
2023-03-11T11:57:00.314Z,96554.66
2023-03-11T11:59:29.335Z,96552.94
2023-03-11T12:02:12.949Z,96556.22
2023-03-11T12:04:58.553Z,96544.97
2023-03-11T12:07:44.082Z,96548.00
2023-03-11T12:10:26.110Z,96545.47
2023-03-11T12:13:20.139Z,96535.69
2023-03-11T12:15:55.337Z,96542.19
2023-03-11T12:18:32.676Z,96532.00
2023-03-11T12:21:20.704Z,96533.81
2023-03-11T12:24:03.102Z,96528.75
2023-03-11T12:26:37.938Z,96509.09
2023-03-11T12:29:18.867Z,96512.44
2023-03-11T12:31:48.208Z,96514.97
2023-03-11T12:34:20.709Z,96528.16
2023-03-11T12:36:52.478Z,96531.06
2023-03-11T12:39:24.002Z,96533.06
2023-03-11T12:42:16.753Z,96537.38
2023-03-11T12:44:45.814Z,96544.84
2023-03-11T12:47:22.890Z,96536.50
2023-03-11T12:49:52.745Z,96540.13
2023-03-11T12:52:24.681Z,96530.81
2023-03-11T12:55:36.739Z,96526.66
2023-03-11T12:58:30.248Z,96522.38
2023-03-11T13:01:12.279Z,96513.25
2023-03-11T13:03:55.066Z,96510.31
2023-03-11T13:07:02.748Z,96511.91
2023-03-11T13:09:32.034Z,96507.25
2023-03-11T13:11:59.739Z,96508.19
2023-03-11T13:14:30.615Z,96504.53
2023-03-11T13:17:25.490Z,96504.81
2023-03-11T13:19:55.413Z,96511.81
2023-03-11T13:23:14.895Z,96518.09
2023-03-11T13:26:18.308Z,96523.75
2023-03-11T13:29:13.000Z,96535.63
2023-03-11T13:32:01.188Z,96544.53
2023-03-11T13:34:42.845Z,96547.34
2023-03-11T13:37:25.674Z,96551.28
2023-03-11T13:40:06.086Z,96543.75
2023-03-11T13:42:42.481Z,96539.38
2023-03-11T13:45:25.853Z,96548.91
2023-03-11T13:47:59.897Z,96548.06
2023-03-11T13:50:34.215Z,96552.66
2023-03-11T13:53:09.076Z,96568.97
2023-03-11T13:55:42.951Z,96576.56
2023-03-11T13:58:22.215Z,96575.63
2023-03-11T14:00:52.896Z,96571.06
2023-03-11T14:03:22.906Z,96570.13
2023-03-11T14:05:57.848Z,96578.13
2023-03-11T14:08:28.632Z,96574.91
2023-03-11T14:10:58.035Z,96573.97
2023-03-11T14:13:28.992Z,96585.00
2023-03-11T14:16:05.906Z,96576.88
2023-03-11T14:18:36.524Z,96579.94
2023-03-11T14:21:07.043Z,96585.72
2023-03-11T14:23:39.621Z,96584.91
2023-03-11T14:26:12.672Z,96585.84
2023-03-11T14:28:46.161Z,96577.41
2023-03-11T14:31:29.462Z,96588.13
2023-03-11T14:34:00.378Z,96582.81
2023-03-11T14:36:28.261Z,96593.88
2023-03-11T14:38:55.866Z,96590.88
2023-03-11T14:41:23.830Z,96595.94
2023-03-11T14:43:54.705Z,96588.56
2023-03-11T14:46:28.137Z,96589.03
2023-03-11T14:48:59.859Z,96588.84
2023-03-11T14:51:34.341Z,96590.22
2023-03-11T14:54:14.376Z,96593.94
2023-03-11T14:56:49.504Z,96601.28
2023-03-11T14:59:23.845Z,96600.47
2023-03-11T15:01:53.693Z,96601.13
2023-03-11T15:04:30.580Z,96597.84
2023-03-11T15:06:59.946Z,96597.28
2023-03-11T15:09:29.664Z,96589.72
2023-03-11T15:11:59.679Z,96602.69
2023-03-11T15:14:30.378Z,96600.53
2023-03-11T15:17:33.612Z,96609.41
2023-03-11T15:20:02.652Z,96611.50
2023-03-11T15:22:36.239Z,96605.66
2023-03-11T15:25:15.752Z,96620.44
2023-03-11T15:27:43.565Z,96615.06
2023-03-11T15:30:21.250Z,96619.38
2023-03-11T15:32:49.330Z,96621.69
2023-03-11T15:35:19.582Z,96618.59
2023-03-11T15:37:49.472Z,96625.59
2023-03-11T15:40:30.022Z,96623.59
2023-03-11T15:43:26.554Z,96618.06
2023-03-11T15:45:58.444Z,96623.41
2023-03-11T15:48:26.393Z,96628.38
2023-03-11T15:50:56.477Z,96626.84
2023-03-11T15:53:26.387Z,96628.16
2023-03-11T15:56:06.242Z,96630.34
2023-03-11T15:58:36.863Z,96632.13
2023-03-11T16:01:05.966Z,96635.81
2023-03-11T16:03:33.688Z,96632.91
2023-03-11T16:06:01.299Z,96641.16
2023-03-11T16:08:28.951Z,96636.38
2023-03-11T16:10:56.580Z,96634.94
2023-03-11T16:13:24.428Z,96642.88
2023-03-11T16:15:53.166Z,96647.88
2023-03-11T16:18:22.159Z,96652.16
2023-03-11T16:20:53.004Z,96652.88
2023-03-11T16:23:25.000Z,96641.97
2023-03-11T16:25:58.779Z,96647.94
2023-03-11T16:28:26.992Z,96661.06
2023-03-11T16:30:54.768Z,96666.38
2023-03-11T16:33:23.782Z,96666.44
2023-03-11T16:35:51.405Z,96678.91
2023-03-11T16:38:19.109Z,96681.25
2023-03-11T16:40:56.714Z,96682.53
2023-03-11T16:43:24.721Z,96689.31
2023-03-11T16:45:52.384Z,96694.22
2023-03-11T16:48:20.050Z,96692.75
2023-03-11T16:50:49.642Z,96701.00
2023-03-11T16:53:17.779Z,96698.56
2023-03-11T16:55:46.308Z,96704.84
2023-03-11T16:58:14.116Z,96704.22
2023-03-11T17:00:41.977Z,96694.94
2023-03-11T17:03:12.626Z,96697.22
2023-03-11T17:05:40.553Z,96708.09
2023-03-11T17:08:10.198Z,96715.28
2023-03-11T17:10:39.548Z,96722.75
2023-03-11T17:13:07.586Z,96719.16
2023-03-11T17:15:35.263Z,96722.06
2023-03-11T17:18:03.427Z,96712.66
2023-03-11T17:20:31.428Z,96723.38
2023-03-11T17:23:00.130Z,96726.81
2023-03-11T17:25:29.206Z,96723.97
2023-03-11T17:27:57.440Z,96725.28
2023-03-11T17:30:36.446Z,96710.41
2023-03-11T17:33:04.939Z,96722.59
2023-03-11T17:35:32.768Z,96722.63
2023-03-11T17:38:00.456Z,96712.53
2023-03-11T17:40:29.546Z,96716.56
2023-03-11T17:42:57.163Z,96711.84
2023-03-11T17:45:25.173Z,96720.78
2023-03-11T17:47:52.810Z,96741.38
2023-03-11T17:50:20.414Z,96739.84
2023-03-11T17:52:48.082Z,96749.16
2023-03-11T17:55:16.074Z,96755.50
2023-03-11T17:57:46.038Z,96757.97
2023-03-11T18:00:15.241Z,96760.44
2023-03-11T18:02:42.928Z,96770.06
2023-03-11T18:05:10.801Z,96767.06
2023-03-11T18:07:39.184Z,96759.72
2023-03-11T18:10:09.490Z,96764.81
2023-03-11T18:12:38.180Z,96765.59
2023-03-11T18:15:08.647Z,96759.72
2023-03-11T18:17:36.293Z,96759.59
2023-03-11T18:20:04.468Z,96768.69
2023-03-11T18:22:35.191Z,96772.13
2023-03-11T18:25:03.258Z,96777.75
2023-03-11T18:27:30.864Z,96779.34
2023-03-11T18:29:58.409Z,96776.25
2023-03-11T18:32:27.392Z,96779.72
2023-03-11T18:34:55.037Z,96782.06
2023-03-11T18:37:23.246Z,96793.47
2023-03-11T18:39:50.780Z,96780.31
2023-03-11T18:42:18.482Z,96791.59
2023-03-11T18:44:46.087Z,96792.69
2023-03-11T18:47:13.717Z,96780.25
2023-03-11T18:49:42.858Z,96796.97
2023-03-11T18:52:10.454Z,96811.19
2023-03-11T18:54:38.304Z,96793.59
2023-03-11T18:57:05.934Z,96816.34
2023-03-11T18:59:33.847Z,96804.72
2023-03-11T19:02:01.513Z,96818.03
2023-03-11T19:04:29.163Z,96817.66
2023-03-11T19:06:58.233Z,96811.47
2023-03-11T19:09:25.776Z,96813.09
2023-03-11T19:11:53.572Z,96824.22
2023-03-11T19:14:21.175Z,96826.38
2023-03-11T19:16:48.872Z,96827.47
2023-03-11T19:19:16.536Z,96845.09
2023-03-11T19:21:44.705Z,96839.88
2023-03-11T19:24:13.914Z,96837.06
2023-03-11T19:26:45.431Z,96839.91
2023-03-11T19:29:14.652Z,96840.56
2023-03-11T19:31:42.440Z,96844.44
2023-03-11T19:34:10.063Z,96834.41
2023-03-11T19:36:37.938Z,96837.59
2023-03-11T19:39:05.726Z,96839.09
2023-03-11T19:41:35.084Z,96845.47
2023-03-11T19:44:02.754Z,96832.81
2023-03-11T19:46:30.464Z,96846.97
2023-03-11T19:48:58.111Z,96850.41
2023-03-11T19:51:38.835Z,96862.25
2023-03-11T19:54:23.821Z,96856.28
2023-03-11T19:56:52.841Z,96867.88
2023-03-11T19:59:20.523Z,96869.66
2023-03-11T20:01:48.173Z,96858.53
2023-03-11T20:04:15.900Z,96857.69
2023-03-11T20:06:44.016Z,96857.88
2023-03-11T20:09:12.039Z,96860.34
2023-03-11T20:11:40.500Z,96851.63
2023-03-11T20:14:10.355Z,96850.75
2023-03-11T20:16:39.028Z,96845.66
2023-03-11T20:19:07.214Z,96858.34
2023-03-11T20:21:34.970Z,96858.94
2023-03-11T20:24:02.593Z,96857.00
2023-03-11T20:26:31.422Z,96863.16
2023-03-11T20:28:59.072Z,96868.06
2023-03-11T20:31:28.495Z,96868.06
2023-03-11T20:33:57.376Z,96869.22
2023-03-11T20:36:27.868Z,96876.13
2023-03-11T20:38:55.859Z,96872.53
2023-03-11T20:41:25.247Z,96883.22
2023-03-11T20:43:54.523Z,96890.25
2023-03-11T20:46:22.756Z,96896.06
2023-03-11T20:48:51.787Z,96901.66
2023-03-11T20:51:20.396Z,96909.97
2023-03-11T20:53:48.899Z,96916.06
2023-03-11T20:56:19.328Z,96919.78
2023-03-11T20:58:48.051Z,96918.31
2023-03-11T21:01:19.142Z,96918.50
2023-03-11T21:03:47.550Z,96911.50
2023-03-11T21:06:21.028Z,96930.72
2023-03-11T21:08:49.998Z,96933.59
2023-03-11T21:11:18.506Z,96936.63
2023-03-11T21:13:46.295Z,96933.91
2023-03-11T21:16:14.119Z,96940.28
2023-03-11T21:18:42.462Z,96940.50
2023-03-11T21:21:10.336Z,96942.88
2023-03-11T21:23:40.135Z,96941.16
2023-03-11T21:26:08.285Z,96934.66
2023-03-11T21:28:36.672Z,96957.91
2023-03-11T21:31:06.914Z,96948.88
2023-03-11T21:33:34.731Z,96942.13
2023-03-11T21:36:02.959Z,96948.94
2023-03-11T21:38:30.930Z,96952.28
2023-03-11T21:41:07.976Z,96961.22
2023-03-11T21:43:37.070Z,96960.56
2023-03-11T21:46:06.254Z,96962.72
2023-03-11T21:48:34.187Z,96965.47
2023-03-11T21:51:02.200Z,96964.59
2023-03-11T21:53:30.765Z,96959.22
2023-03-11T21:55:58.933Z,96953.44
2023-03-11T21:58:28.062Z,96951.88
2023-03-11T22:00:56.082Z,96961.66
2023-03-11T22:03:23.928Z,96959.88
2023-03-11T22:05:57.111Z,96964.88
2023-03-11T22:08:25.700Z,96971.06
2023-03-11T22:10:53.601Z,96969.81
2023-03-11T22:13:22.099Z,96971.63
2023-03-11T22:15:51.676Z,96979.75
2023-03-11T22:18:19.380Z,96980.59
2023-03-11T22:20:47.230Z,96991.16
2023-03-11T22:23:14.961Z,96988.25
2023-03-11T22:25:42.721Z,96985.16
2023-03-11T22:28:10.374Z,96982.81
2023-03-11T22:30:38.005Z,96986.09
2023-03-11T22:33:07.274Z,96982.63
2023-03-11T22:35:35.022Z,96990.00
2023-03-11T22:38:02.736Z,96993.03
2023-03-11T22:40:30.385Z,97012.63
2023-03-11T22:42:58.039Z,97022.38
2023-03-11T22:45:25.883Z,97025.47
2023-03-11T22:47:53.552Z,97022.59
2023-03-11T22:50:22.549Z,97027.75
2023-03-11T22:52:50.351Z,97020.41
2023-03-11T22:55:19.651Z,97024.59
2023-03-11T22:57:47.347Z,97025.53
2023-03-11T23:00:20.674Z,97021.38
2023-03-11T23:02:52.013Z,97031.19
2023-03-11T23:05:19.838Z,97037.38
2023-03-11T23:07:48.858Z,97038.06
2023-03-11T23:10:21.040Z,97028.47
2023-03-11T23:12:49.532Z,97019.50
2023-03-11T23:15:19.340Z,97023.22
2023-03-11T23:17:46.981Z,97022.72
2023-03-11T23:20:15.583Z,97033.50
2023-03-11T23:22:43.626Z,97046.22
2023-03-11T23:25:15.314Z,97040.63
2023-03-11T23:27:44.828Z,97033.44
2023-03-11T23:30:14.863Z,97036.03
2023-03-11T23:32:42.964Z,97035.00
2023-03-11T23:35:12.016Z,97038.44
2023-03-11T23:37:40.175Z,97036.16
2023-03-11T23:40:09.059Z,97031.06
2023-03-11T23:42:37.961Z,97042.16
2023-03-11T23:45:06.881Z,97051.59
2023-03-11T23:47:34.449Z,97049.63
2023-03-11T23:50:02.084Z,97045.41
2023-03-11T23:52:29.726Z,97044.03
2023-03-11T23:54:57.459Z,97039.16
2023-03-11T23:57:25.135Z,97046.56
2023-03-11T23:59:54.096Z,97051.84
